Time;durP1;ratioP1;P1;durP2;ratioP2;P2;SDS_P1;SDS_P2;PMS_P1;PMS_P2;Temp;Humidity;BMP_temperature;BMP_pressure;BME280_temperature;BME280_humidity;BME280_pressure;Samples;Min_cycle;Max_cycle;Signal;HPM_P1;HPM_P2
2022/02/14 00:01:46;;;;;;;25.95;13.35;;;;;;;;;;5137278;27;20411;-84
2022/02/14 00:04:12;;;;;;;27.48;15.75;;;;;;;;;;5137222;27;20019;-83
2022/02/14 00:06:38;;;;;;;22.45;14.52;;;;;;;;;;5118615;27;20487;-84
2022/02/14 00:09:04;;;;;;;22.05;13.90;;;;;;;;;;5136977;27;20433;-84
2022/02/14 00:11:30;;;;;;;26.17;14.82;;;;;;;;;;5118520;27;20030;-83
2022/02/14 00:13:56;;;;;;;25.70;15.40;;;;;;;;;;5136761;27;20098;-83
2022/02/14 00:16:23;;;;;;;26.42;15.30;;;;;;;;;;5137097;27;20031;-83
2022/02/14 00:18:49;;;;;;;26.58;14.98;;;;;;;;;;5136833;27;20092;-84
2022/02/14 00:21:15;;;;;;;25.50;15.60;;;;;;;;;;5118186;27;20046;-84
2022/02/14 00:23:41;;;;;;;34.20;16.70;;;;;;;;;;5118541;27;20068;-85
2022/02/14 00:26:07;;;;;;;27.67;16.00;;;;;;;;;;5136897;27;20027;-84
2022/02/14 00:28:33;;;;;;;31.30;16.20;;;;;;;;;;5117985;27;20023;-83
2022/02/14 00:30:59;;;;;;;26.10;15.15;;;;;;;;;;5136319;27;20019;-84
2022/02/14 00:33:26;;;;;;;27.35;16.67;;;;;;;;;;5136623;27;20437;-82
2022/02/14 00:35:52;;;;;;;22.80;14.13;;;;;;;;;;5117561;27;20480;-82
2022/02/14 00:38:20;;;;;;;33.83;16.38;;;;;;;;;;5136298;27;20035;-82
2022/02/14 00:40:46;;;;;;;34.03;17.48;;;;;;;;;;5136254;27;20015;-82
2022/02/14 00:43:12;;;;;;;22.95;13.95;;;;;;;;;;5135856;27;20079;-83
2022/02/14 00:45:39;;;;;;;27.13;15.05;;;;;;;;;;5136556;27;20027;-84
2022/02/14 00:48:05;;;;;;;27.40;14.25;;;;;;;;;;5117419;27;20027;-83
2022/02/14 00:50:32;;;;;;;29.63;16.20;;;;;;;;;;5136092;27;20043;-82
2022/02/14 00:52:58;;;;;;;33.10;17.48;;;;;;;;;;5117548;27;20050;-81
2022/02/14 00:55:24;;;;;;;33.20;17.40;;;;;;;;;;5135585;27;20030;-81
2022/02/14 00:57:51;;;;;;;40.75;21.10;;;;;;;;;;5117913;27;20480;-83
2022/02/14 01:00:18;;;;;;;37.60;20.70;;;;;;;;;;5136617;27;20486;-84
2022/02/14 01:02:44;;;;;;;25.90;15.02;;;;;;;;;;5135808;27;20038;-83
2022/02/14 01:05:11;;;;;;;24.90;14.63;;;;;;;;;;5117801;27;20027;-82
2022/02/14 01:07:38;;;;;;;23.83;12.63;;;;;;;;;;5135771;27;20042;-84
2022/02/14 01:10:05;;;;;;;19.38;11.50;;;;;;;;;;5147747;27;20019;-82
2022/02/14 01:12:33;;;;;;;23.40;13.73;;;;;;;;;;5152491;27;20476;-81
2022/02/14 01:14:59;;;;;;;35.47;20.92;;;;;;;;;;5119799;27;20055;-82
2022/02/14 01:17:25;;;;;;;32.22;16.40;;;;;;;;;;5136090;27;20027;-82
2022/02/14 01:19:52;;;;;;;27.13;15.73;;;;;;;;;;5136848;27;20058;-82
2022/02/14 01:22:18;;;;;;;39.28;18.65;;;;;;;;;;5136797;27;20107;-82
2022/02/14 01:24:44;;;;;;;32.17;15.93;;;;;;;;;;5136573;27;20023;-84
2022/02/14 01:27:10;;;;;;;24.05;14.70;;;;;;;;;;5118183;27;20020;-83
2022/02/14 01:29:36;;;;;;;21.33;13.45;;;;;;;;;;5137214;27;20069;-82
2022/02/14 01:32:03;;;;;;;26.75;15.18;;;;;;;;;;5135974;27;20055;-82
2022/02/14 01:34:29;;;;;;;23.52;13.32;;;;;;;;;;5135624;27;20027;-79
2022/02/14 01:36:55;;;;;;;26.63;14.80;;;;;;;;;;5135280;27;20027;-80
2022/02/14 01:39:21;;;;;;;30.05;17.35;;;;;;;;;;5134633;27;20043;-81
2022/02/14 01:41:47;;;;;;;29.95;17.15;;;;;;;;;;5116631;27;20031;-81
2022/02/14 01:44:46;;;;;;;27.45;15.85;;;;;;;;;;5116571;27;20019;-81
2022/02/14 01:47:13;;;;;;;27.50;17.20;;;;;;;;;;5090163;27;20039;-81
2022/02/14 01:49:39;;;;;;;27.13;14.95;;;;;;;;;;5116558;27;20019;-81
2022/02/14 01:52:06;;;;;;;25.13;14.63;;;;;;;;;;5116413;27;20041;-81
2022/02/14 01:54:34;;;;;;;26.85;15.95;;;;;;;;;;5135119;27;20354;-79
2022/02/14 01:57:01;;;;;;;26.70;16.40;;;;;;;;;;5116793;27;20494;-80
2022/02/14 01:59:27;;;;;;;35.03;19.17;;;;;;;;;;5134580;27;20395;-81
2022/02/14 02:01:53;;;;;;;37.35;22.15;;;;;;;;;;5116607;27;20031;-83
2022/02/14 02:04:20;;;;;;;38.78;22.48;;;;;;;;;;5135332;27;20353;-82
2022/02/14 02:06:46;;;;;;;33.30;21.20;;;;;;;;;;5134615;27;20104;-82
2022/02/14 02:09:12;;;;;;;27.13;17.25;;;;;;;;;;5134609;27;20475;-81
2022/02/14 02:14:24;;;;;;;21.75;11.98;;;;;;;;;;5134278;27;20148;-80
2022/02/14 02:16:50;;;;;;;23.52;13.98;;;;;;;;;;5134457;27;20034;-80
2022/02/14 02:19:17;;;;;;;20.10;13.18;;;;;;;;;;5134462;27;20023;-80
2022/02/14 02:21:44;;;;;;;20.08;12.55;;;;;;;;;;5133982;28;20031;-82
2022/02/14 02:24:14;;;;;;;27.65;14.48;;;;;;;;;;5116041;28;20328;-82
2022/02/14 02:26:40;;;;;;;25.02;15.05;;;;;;;;;;5115688;28;20023;-83
2022/02/14 02:29:07;;;;;;;26.05;15.65;;;;;;;;;;5116223;28;20042;-83
2022/02/14 02:31:33;;;;;;;28.27;17.63;;;;;;;;;;5134161;28;20050;-80
2022/02/14 02:33:59;;;;;;;22.83;15.05;;;;;;;;;;5134479;28;20030;-81
2022/02/14 02:36:25;;;;;;;22.27;13.23;;;;;;;;;;5134329;28;20030;-80
2022/02/14 02:38:52;;;;;;;24.67;14.43;;;;;;;;;;5134297;28;20020;-80
2022/02/14 02:41:18;;;;;;;27.20;16.90;;;;;;;;;;5133744;27;20084;-81
2022/02/14 02:43:44;;;;;;;26.38;15.63;;;;;;;;;;5137090;27;20019;-82
2022/02/14 02:46:10;;;;;;;30.63;18.83;;;;;;;;;;5138501;27;20019;-82
2022/02/14 02:48:37;;;;;;;28.90;17.85;;;;;;;;;;5119619;27;20480;-80
2022/02/14 02:51:03;;;;;;;27.52;16.33;;;;;;;;;;5138377;27;20082;-80
2022/02/14 02:53:30;;;;;;;29.42;17.05;;;;;;;;;;5138224;27;20487;-80
2022/02/14 02:55:57;;;;;;;27.95;16.17;;;;;;;;;;5137892;27;20027;-80
2022/02/14 02:58:23;;;;;;;29.50;17.83;;;;;;;;;;5138188;27;20023;-81
2022/02/14 03:00:49;;;;;;;30.30;19.40;;;;;;;;;;5138412;27;20031;-83
2022/02/14 03:03:15;;;;;;;29.38;17.92;;;;;;;;;;5120007;27;20019;-83
2022/02/14 03:05:42;;;;;;;24.35;15.23;;;;;;;;;;5138376;27;20094;-84
2022/02/14 03:08:08;;;;;;;26.83;17.38;;;;;;;;;;5119780;27;20023;-83
2022/02/14 03:10:34;;;;;;;30.20;16.02;;;;;;;;;;5137677;27;20495;-81
2022/02/14 03:13:00;;;;;;;28.48;15.57;;;;;;;;;;5138214;27;20023;-81
2022/02/14 03:15:26;;;;;;;25.02;14.68;;;;;;;;;;5138080;27;20019;-81
2022/02/14 03:17:53;;;;;;;22.50;13.68;;;;;;;;;;5119178;27;20041;-81
2022/02/14 03:20:19;;;;;;;28.48;16.13;;;;;;;;;;5119457;27;20034;-82
2022/02/14 03:22:45;;;;;;;28.02;16.85;;;;;;;;;;5137517;27;20031;-83
2022/02/14 03:25:14;;;;;;;22.58;14.25;;;;;;;;;;5137804;27;20473;-82
2022/02/14 03:27:40;;;;;;;35.38;19.70;;;;;;;;;;5137770;27;20468;-83
2022/02/14 03:30:07;;;;;;;29.60;18.98;;;;;;;;;;5137410;27;20407;-82
2022/02/14 03:32:33;;;;;;;37.88;20.20;;;;;;;;;;5137522;27;20047;-81
2022/02/14 03:35:00;;;;;;;32.38;17.60;;;;;;;;;;5119252;27;20047;-82
2022/02/14 03:37:26;;;;;;;29.55;17.30;;;;;;;;;;5118788;27;20023;-82
2022/02/14 03:39:52;;;;;;;30.60;19.48;;;;;;;;;;5137723;27;20023;-81
2022/02/14 03:42:18;;;;;;;38.40;19.40;;;;;;;;;;5137573;27;20031;-83
2022/02/14 03:44:45;;;;;;;36.92;19.75;;;;;;;;;;5137209;27;20027;-83
2022/02/14 03:47:11;;;;;;;29.80;17.83;;;;;;;;;;5137690;27;20027;-82
2022/02/14 03:49:37;;;;;;;34.17;18.92;;;;;;;;;;5137702;27;20023;-81
2022/02/14 03:52:04;;;;;;;30.17;16.48;;;;;;;;;;5118345;27;20028;-81
2022/02/14 03:54:30;;;;;;;27.90;15.45;;;;;;;;;;5118203;27;20026;-81
2022/02/14 03:56:56;;;;;;;26.40;13.95;;;;;;;;;;5118763;27;20019;-81
2022/02/14 03:59:22;;;;;;;21.65;13.88;;;;;;;;;;5136816;27;20026;-84
2022/02/14 04:01:48;;;;;;;26.02;14.43;;;;;;;;;;5137403;27;20032;-84
2022/02/14 04:04:14;;;;;;;22.80;14.55;;;;;;;;;;5137843;27;20047;-84
2022/02/14 04:06:41;;;;;;;24.17;13.45;;;;;;;;;;5137139;27;20396;-84
2022/02/14 04:09:07;;;;;;;26.75;13.95;;;;;;;;;;5137464;27;20020;-84
2022/02/14 04:11:33;;;;;;;21.83;13.20;;;;;;;;;;5137104;27;20027;-82
2022/02/14 04:13:59;;;;;;;23.52;14.02;;;;;;;;;;5136602;27;20027;-82
2022/02/14 04:16:25;;;;;;;22.63;12.52;;;;;;;;;;5136872;27;20015;-82
2022/02/14 04:18:52;;;;;;;22.35;12.35;;;;;;;;;;5136883;27;20023;-82
2022/02/14 04:21:18;;;;;;;20.42;10.98;;;;;;;;;;5136202;27;20027;-83
2022/02/14 04:23:44;;;;;;;18.38;11.98;;;;;;;;;;5136830;27;20080;-83
2022/02/14 04:26:10;;;;;;;21.80;11.93;;;;;;;;;;5136221;27;20030;-83
2022/02/14 04:28:36;;;;;;;21.02;12.18;;;;;;;;;;5127395;27;20011;-77
2022/02/14 04:31:02;;;;;;;24.70;12.57;;;;;;;;;;5162219;27;20054;-74
2022/02/14 04:33:29;;;;;;;25.70;13.45;;;;;;;;;;5149365;27;20058;-83
2022/02/14 04:35:55;;;;;;;29.35;15.18;;;;;;;;;;5146618;27;20080;-82
2022/02/14 04:38:21;;;;;;;29.33;15.75;;;;;;;;;;5137668;27;20023;-83
2022/02/14 04:40:47;;;;;;;25.60;13.38;;;;;;;;;;5137381;27;20365;-83
2022/02/14 04:43:16;;;;;;;22.33;14.18;;;;;;;;;;5138669;27;20079;-84
2022/02/14 04:45:42;;;;;;;21.70;13.02;;;;;;;;;;5138017;27;20019;-84
2022/02/14 04:48:08;;;;;;;23.55;12.77;;;;;;;;;;5119242;27;20481;-83
2022/02/14 04:50:34;;;;;;;21.67;12.73;;;;;;;;;;5137969;27;20022;-81
2022/02/14 04:53:01;;;;;;;27.30;14.93;;;;;;;;;;5137919;27;20026;-81
2022/02/14 04:55:28;;;;;;;28.60;17.15;;;;;;;;;;5136214;27;20034;-81
2022/02/14 04:57:54;;;;;;;33.30;17.88;;;;;;;;;;5135932;27;20030;-83
2022/02/14 05:00:21;;;;;;;26.80;16.48;;;;;;;;;;5135999;27;20026;-84
2022/02/14 05:02:47;;;;;;;33.00;20.60;;;;;;;;;;5135985;27;20446;-83
2022/02/14 05:05:13;;;;;;;31.80;18.98;;;;;;;;;;5116865;27;20023;-83
2022/02/14 05:07:40;;;;;;;37.67;20.55;;;;;;;;;;5135921;27;20023;-83
2022/02/14 05:10:07;;;;;;;49.65;30.42;;;;;;;;;;5135518;27;20019;-84
2022/02/14 05:12:33;;;;;;;40.45;24.08;;;;;;;;;;5135801;27;20023;-81
2022/02/14 05:14:59;;;;;;;46.67;26.77;;;;;;;;;;5135523;27;20025;-82
2022/02/14 05:17:25;;;;;;;45.90;26.38;;;;;;;;;;5135205;27;20464;-82
2022/02/14 05:19:52;;;;;;;41.08;23.60;;;;;;;;;;5135830;27;20361;-83
2022/02/14 05:22:18;;;;;;;41.30;22.83;;;;;;;;;;5116774;27;20037;-83
2022/02/14 05:24:44;;;;;;;46.28;25.77;;;;;;;;;;5135752;27;20019;-83
2022/02/14 05:27:10;;;;;;;56.50;32.17;;;;;;;;;;5135313;27;20027;-83
2022/02/14 05:29:36;;;;;;;60.05;34.47;;;;;;;;;;5134966;27;20058;-79
2022/02/14 05:32:02;;;;;;;67.05;37.50;;;;;;;;;;5113353;28;20048;-81
2022/02/14 05:34:29;;;;;;;70.05;43.78;;;;;;;;;;5115346;28;20354;-79
2022/02/14 05:36:55;;;;;;;72.22;38.30;;;;;;;;;;5113029;28;20046;-79
2022/02/14 05:39:21;;;;;;;63.63;37.58;;;;;;;;;;5115602;28;20500;-81
2022/02/14 05:41:47;;;;;;;69.32;38.00;;;;;;;;;;5113096;28;20035;-80
2022/02/14 05:44:13;;;;;;;60.15;33.92;;;;;;;;;;5114251;28;20038;-82
2022/02/14 05:46:39;;;;;;;70.95;41.70;;;;;;;;;;5114454;28;20088;-80
2022/02/14 05:49:06;;;;;;;75.05;42.42;;;;;;;;;;5115087;28;20023;-83
2022/02/14 05:51:32;;;;;;;103.22;55.50;;;;;;;;;;5112853;28;20032;-79
2022/02/14 05:53:58;;;;;;;97.55;53.63;;;;;;;;;;5114478;28;20384;-80
2022/02/14 05:56:24;;;;;;;80.32;46.70;;;;;;;;;;5114428;28;20023;-79
2022/02/14 05:58:50;;;;;;;75.30;44.60;;;;;;;;;;5113953;28;20020;-80
2022/02/14 06:01:16;;;;;;;55.20;33.88;;;;;;;;;;5114321;28;20116;-80
2022/02/14 06:03:43;;;;;;;56.50;32.90;;;;;;;;;;5110176;28;20408;-80
2022/02/14 06:06:09;;;;;;;51.30;29.70;;;;;;;;;;5112399;28;20094;-81
2022/02/14 06:08:35;;;;;;;48.75;29.30;;;;;;;;;;5114566;28;20031;-68
2022/02/14 06:11:02;;;;;;;45.97;30.48;;;;;;;;;;5113788;28;20057;-68
2022/02/14 06:13:29;;;;;;;51.50;29.67;;;;;;;;;;5109813;28;20122;-68
2022/02/14 06:15:55;;;;;;;47.72;26.75;;;;;;;;;;5110228;28;20035;-67
2022/02/14 06:18:21;;;;;;;40.88;25.20;;;;;;;;;;5110168;28;20031;-67
2022/02/14 06:20:47;;;;;;;34.67;22.50;;;;;;;;;;5108684;28;20028;-67
2022/02/14 06:23:14;;;;;;;32.20;20.25;;;;;;;;;;5108799;28;20115;-69
2022/02/14 06:25:40;;;;;;;28.92;20.38;;;;;;;;;;5109888;28;20027;-68
2022/02/14 06:28:06;;;;;;;31.20;21.98;;;;;;;;;;5106634;28;20031;-67
2022/02/14 06:30:33;;;;;;;25.60;18.15;;;;;;;;;;5111087;28;20036;-67
2022/02/14 06:32:59;;;;;;;35.20;22.83;;;;;;;;;;5131258;28;20103;-67
2022/02/14 06:35:25;;;;;;;29.55;20.10;;;;;;;;;;5132670;28;20019;-68
2022/02/14 06:37:52;;;;;;;29.70;19.20;;;;;;;;;;5130684;28;20060;-80
2022/02/14 06:40:18;;;;;;;44.75;28.23;;;;;;;;;;5133100;28;20029;-76
2022/02/14 06:42:48;;;;;;;51.92;27.95;;;;;;;;;;5113835;28;20484;-81
2022/02/14 06:45:15;;;;;;;49.95;31.10;;;;;;;;;;5132761;28;20372;-82
2022/02/14 06:47:42;;;;;;;50.13;31.52;;;;;;;;;;5131694;28;20023;-83
2022/02/14 06:50:09;;;;;;;49.83;30.50;;;;;;;;;;5113548;28;20391;-83
2022/02/14 06:52:35;;;;;;;55.65;34.65;;;;;;;;;;5102024;28;20023;-83
2022/02/14 06:55:01;;;;;;;53.10;34.50;;;;;;;;;;5133328;28;20362;-80
2022/02/14 06:57:27;;;;;;;54.65;33.50;;;;;;;;;;5133170;28;20030;-79
2022/02/14 06:59:53;;;;;;;50.03;30.77;;;;;;;;;;5130661;28;20012;-79
2022/02/14 07:02:20;;;;;;;65.50;38.47;;;;;;;;;;5131201;28;20039;-81
2022/02/14 07:04:46;;;;;;;72.95;44.47;;;;;;;;;;5113382;28;20517;-85
2022/02/14 07:07:18;;;;;;;60.78;37.92;;;;;;;;;;5135429;28;20027;-83
2022/02/14 07:09:46;;;;;;;51.63;32.67;;;;;;;;;;5129945;28;20380;-81
2022/02/14 07:12:12;;;;;;;71.43;40.05;;;;;;;;;;5124916;28;20027;-79
2022/02/14 07:14:38;;;;;;;64.22;34.40;;;;;;;;;;5130004;28;20071;-85
2022/02/14 07:17:05;;;;;;;57.72;32.53;;;;;;;;;;5130475;28;20029;-82
2022/02/14 07:19:31;;;;;;;49.20;29.58;;;;;;;;;;5131867;28;20025;-79
2022/02/14 07:21:57;;;;;;;71.68;36.30;;;;;;;;;;5125021;27;20039;-82
2022/02/14 07:24:24;;;;;;;58.55;35.72;;;;;;;;;;5133538;27;20020;-84
2022/02/14 07:26:51;;;;;;;58.92;37.60;;;;;;;;;;5114788;28;20067;-81
2022/02/14 07:29:17;;;;;;;57.70;35.88;;;;;;;;;;5131896;27;20076;-85
2022/02/14 07:31:43;;;;;;;85.63;50.95;;;;;;;;;;5133964;27;20092;-86
2022/02/14 07:34:09;;;;;;;59.40;40.60;;;;;;;;;;5135397;27;20062;-87
2022/02/14 07:36:35;;;;;;;49.17;32.83;;;;;;;;;;5134418;27;20042;-78
2022/02/14 07:39:02;;;;;;;49.63;35.35;;;;;;;;;;5135559;27;20452;-84
2022/02/14 07:41:28;;;;;;;41.58;30.10;;;;;;;;;;5117728;27;20395;-80
2022/02/14 07:43:54;;;;;;;41.10;27.85;;;;;;;;;;5135989;27;20034;-80
2022/02/14 07:46:20;;;;;;;32.75;21.63;;;;;;;;;;5135950;27;20023;-79
2022/02/14 07:48:47;;;;;;;31.88;21.58;;;;;;;;;;5136168;27;20067;-79
2022/02/14 07:51:14;;;;;;;31.33;21.38;;;;;;;;;;5136516;27;20023;-81
2022/02/14 07:53:41;;;;;;;39.35;25.73;;;;;;;;;;5136072;27;20043;-80
2022/02/14 07:56:10;;;;;;;43.53;28.92;;;;;;;;;;5134102;27;20046;-83
2022/02/14 07:58:36;;;;;;;39.05;25.23;;;;;;;;;;5153576;27;20003;-84
2022/02/14 08:01:02;;;;;;;59.92;39.80;;;;;;;;;;5154729;27;20085;-80
2022/02/14 08:03:28;;;;;;;60.80;38.38;;;;;;;;;;5129656;27;20027;-83
2022/02/14 08:05:54;;;;;;;65.82;41.95;;;;;;;;;;5142188;27;20476;-81
2022/02/14 08:08:21;;;;;;;55.05;35.40;;;;;;;;;;5135833;27;20529;-80
2022/02/14 08:10:47;;;;;;;63.78;37.38;;;;;;;;;;5136277;27;20016;-83
2022/02/14 08:13:13;;;;;;;78.85;48.50;;;;;;;;;;5135898;27;20023;-83
2022/02/14 08:15:39;;;;;;;67.60;43.45;;;;;;;;;;5136303;27;20500;-81
2022/02/14 08:18:07;;;;;;;52.47;30.05;;;;;;;;;;5135012;27;20450;-80
2022/02/14 08:20:34;;;;;;;44.75;25.75;;;;;;;;;;5135526;27;20011;-77
2022/02/14 08:23:02;;;;;;;49.67;29.13;;;;;;;;;;5133642;27;20420;-81
2022/02/14 08:25:28;;;;;;;46.80;25.20;;;;;;;;;;5133800;27;20026;-80
2022/02/14 08:27:54;;;;;;;32.97;19.33;;;;;;;;;;5134815;27;20027;-80
2022/02/14 08:30:21;;;;;;;24.15;13.93;;;;;;;;;;5114065;27;20035;-79
2022/02/14 08:32:47;;;;;;;36.47;20.83;;;;;;;;;;5115381;27;20040;-78
2022/02/14 08:35:19;;;;;;;24.17;14.20;;;;;;;;;;5137608;27;20027;-81
2022/02/14 08:37:46;;;;;;;25.97;11.90;;;;;;;;;;5114574;27;20019;-81
2022/02/14 08:40:14;;;;;;;18.52;10.40;;;;;;;;;;5133718;27;20023;-83
2022/02/14 08:42:40;;;;;;;14.65;8.77;;;;;;;;;;5133247;27;20103;-83
2022/02/14 08:45:06;;;;;;;22.50;13.73;;;;;;;;;;5132026;27;20498;-81
2022/02/14 08:47:33;;;;;;;20.38;12.73;;;;;;;;;;5134348;27;20100;-87
2022/02/14 08:50:05;;;;;;;17.85;10.13;;;;;;;;;;5117282;27;20059;-81
2022/02/14 08:52:31;;;;;;;18.05;10.02;;;;;;;;;;5110493;27;20546;-80
2022/02/14 08:54:57;;;;;;;16.77;9.85;;;;;;;;;;5131084;27;20027;-80
2022/02/14 08:57:23;;;;;;;21.70;11.95;;;;;;;;;;5114447;27;20048;-83
2022/02/14 08:59:50;;;;;;;21.90;11.38;;;;;;;;;;5134523;27;20046;-84
2022/02/14 09:02:17;;;;;;;23.25;8.73;;;;;;;;;;5134661;27;20168;-84
2022/02/14 09:04:44;;;;;;;17.17;10.50;;;;;;;;;;5135023;27;20026;-89
2022/02/14 09:07:10;;;;;;;23.35;14.30;;;;;;;;;;5131830;27;20035;-82
2022/02/14 09:09:36;;;;;;;28.48;18.35;;;;;;;;;;5132901;27;20015;-82
2022/02/14 09:12:03;;;;;;;23.35;12.40;;;;;;;;;;5134571;27;20104;-83
2022/02/14 09:14:30;;;;;;;18.13;11.02;;;;;;;;;;5133600;27;20028;-80
2022/02/14 09:16:56;;;;;;;16.13;8.63;;;;;;;;;;5134620;27;20027;-79
2022/02/14 09:19:22;;;;;;;23.77;12.15;;;;;;;;;;5116402;27;20116;-86
2022/02/14 09:21:48;;;;;;;15.90;8.73;;;;;;;;;;5133702;27;20480;-85
2022/02/14 09:24:15;;;;;;;26.88;16.73;;;;;;;;;;5116551;27;20031;-81
2022/02/14 09:26:42;;;;;;;17.33;9.38;;;;;;;;;;5134413;27;20015;-80
2022/02/14 09:29:12;;;;;;;12.65;7.18;;;;;;;;;;5115931;27;20033;-87
2022/02/14 09:31:38;;;;;;;12.32;7.60;;;;;;;;;;5134647;27;20079;-84
2022/02/14 09:34:05;;;;;;;15.98;7.38;;;;;;;;;;5134453;27;20026;-81
2022/02/14 09:36:31;;;;;;;17.70;9.10;;;;;;;;;;5132738;27;20051;-82
2022/02/14 09:38:57;;;;;;;14.85;8.40;;;;;;;;;;5134892;27;20023;-81
2022/02/14 09:41:25;;;;;;;21.05;11.73;;;;;;;;;;5134038;27;20096;-82
2022/02/14 09:43:51;;;;;;;19.05;8.73;;;;;;;;;;5132918;27;20075;-81
2022/02/14 09:46:18;;;;;;;18.30;11.68;;;;;;;;;;5134331;27;20201;-84
2022/02/14 09:48:44;;;;;;;21.63;11.52;;;;;;;;;;5132848;27;20027;-81
2022/02/14 09:51:12;;;;;;;24.98;13.90;;;;;;;;;;5112353;27;20031;-80
2022/02/14 09:53:41;;;;;;;22.13;13.13;;;;;;;;;;5132202;27;20019;-80
2022/02/14 09:56:11;;;;;;;23.10;13.65;;;;;;;;;;5132189;27;20440;-83
2022/02/14 09:58:37;;;;;;;19.25;11.43;;;;;;;;;;5131767;27;20098;-78
2022/02/14 10:01:04;;;;;;;15.98;8.15;;;;;;;;;;5132040;27;20019;-82
2022/02/14 10:03:30;;;;;;;18.50;8.25;;;;;;;;;;5133519;27;20027;-81
2022/02/14 10:05:57;;;;;;;17.02;8.68;;;;;;;;;;5116144;27;20015;-82
2022/02/14 10:08:28;;;;;;;15.65;8.98;;;;;;;;;;5115517;27;20455;-82
2022/02/14 10:11:15;;;;;;;18.85;11.07;;;;;;;;;;5114072;27;20114;-82
2022/02/14 10:13:42;;;;;;;31.10;17.58;;;;;;;;;;5130879;27;20106;-81
2022/02/14 10:16:10;;;;;;;18.67;11.82;;;;;;;;;;5115266;28;20027;-78
2022/02/14 10:18:37;;;;;;;16.48;9.20;;;;;;;;;;5114811;28;20098;-77
2022/02/14 10:21:21;;;;;;;16.35;10.00;;;;;;;;;;5133003;27;20102;-80
2022/02/14 10:24:00;;;;;;;18.52;10.38;;;;;;;;;;5133638;27;20019;-79
2022/02/14 10:28:30;;;;;;;15.68;10.35;;;;;;;;;;5109295;27;20409;-81
2022/02/14 10:31:04;;;;;;;19.40;9.73;;;;;;;;;;5110183;28;20382;-80
2022/02/14 10:37:37;;;;;;;14.50;8.57;;;;;;;;;;5109754;27;20904;-79
2022/02/14 10:40:03;;;;;;;12.93;6.82;;;;;;;;;;5110349;28;20035;-76
2022/02/14 10:43:27;;;;;;;12.07;6.78;;;;;;;;;;5069677;28;20372;-82
2022/02/14 10:45:54;;;;;;;10.57;6.43;;;;;;;;;;5069616;28;20028;-84
2022/02/14 10:48:33;;;;;;;12.30;6.10;;;;;;;;;;5069971;28;20013;-81
2022/02/14 10:50:59;;;;;;;14.52;7.43;;;;;;;;;;5069486;28;20089;-78
2022/02/14 10:55:18;;;;;;;17.48;10.70;;;;;;;;;;5069245;28;20423;-82
2022/02/14 10:57:44;;;;;;;;;;;;;;;;;;5067474;28;20037;-81
2022/02/14 11:00:10;;;;;;;18.70;11.38;;;;;;;;;;5067166;28;19928;-82
2022/02/14 11:02:37;;;;;;;15.43;8.57;;;;;;;;;;5066963;28;20021;-78
2022/02/14 11:05:27;;;;;;;15.63;9.32;;;;;;;;;;5107555;27;20400;-80
2022/02/14 11:08:04;;;;;;;15.75;9.57;;;;;;;;;;5110430;27;20393;-79
2022/02/14 11:12:22;;;;;;;19.35;9.50;;;;;;;;;;5110067;27;20489;-80
2022/02/14 11:14:55;;;;;;;12.13;7.47;;;;;;;;;;5110274;28;20054;-80
2022/02/14 11:17:25;;;;;;;13.38;8.00;;;;;;;;;;5109103;28;20058;-79
2022/02/14 11:19:54;;;;;;;14.00;7.95;;;;;;;;;;5107616;28;20036;-79
2022/02/14 11:22:21;;;;;;;12.07;6.82;;;;;;;;;;5107524;28;20145;-81
2022/02/14 11:24:50;;;;;;;17.23;7.50;;;;;;;;;;5108204;28;20035;-79
2022/02/14 11:29:22;;;;;;;13.70;6.32;;;;;;;;;;5129238;27;20410;-81
2022/02/14 11:31:48;;;;;;;12.75;7.55;;;;;;;;;;5136533;28;20086;-78
2022/02/14 11:34:14;;;;;;;26.17;8.35;;;;;;;;;;5150914;28;20031;-77
2022/02/14 11:36:40;;;;;;;12.05;6.72;;;;;;;;;;5132622;27;20061;-83
2022/02/14 11:39:10;;;;;;;8.40;5.15;;;;;;;;;;5131962;28;20479;-80
2022/02/14 11:43:22;;;;;;;11.60;6.22;;;;;;;;;;5112855;27;20409;-82
2022/02/14 11:46:07;;;;;;;12.90;6.63;;;;;;;;;;5109324;28;20030;-79
2022/02/14 11:49:11;;;;;;;11.75;6.22;;;;;;;;;;5109059;27;20393;-75
2022/02/14 11:51:38;;;;;;;9.20;5.57;;;;;;;;;;5109008;28;20027;-77
2022/02/14 11:56:42;;;;;;;22.05;11.63;;;;;;;;;;5108228;27;20382;-79
2022/02/14 11:59:11;;;;;;;13.07;7.55;;;;;;;;;;5109408;28;20046;-80
2022/02/14 12:01:55;;;;;;;18.08;8.73;;;;;;;;;;5096839;28;20028;-85
2022/02/14 12:04:44;;;;;;;20.40;12.43;;;;;;;;;;5089400;28;20017;-76
2022/02/14 12:11:47;;;;;;;13.85;8.82;;;;;;;;;;5109647;27;20517;-75
2022/02/14 12:20:34;;;;;;;12.57;8.13;;;;;;;;;;5110675;27;20392;-75
2022/02/14 12:23:01;;;;;;;11.07;6.22;;;;;;;;;;5109791;28;20051;-76
2022/02/14 12:25:27;;;;;;;11.85;6.88;;;;;;;;;;5109901;28;20024;-78
2022/02/14 12:27:57;;;;;;;14.93;8.50;;;;;;;;;;5110538;28;20020;-77
2022/02/14 12:30:26;;;;;;;13.40;8.02;;;;;;;;;;5109588;28;20051;-77
2022/02/14 12:32:58;;;;;;;9.40;5.53;;;;;;;;;;5109891;28;20475;-77
2022/02/14 12:35:31;;;;;;;10.75;6.70;;;;;;;;;;5109328;28;20035;-77
2022/02/14 12:37:58;;;;;;;13.82;7.55;;;;;;;;;;5098037;28;20380;-77
2022/02/14 12:41:09;;;;;;;17.23;10.57;;;;;;;;;;5109496;27;20412;-75
2022/02/14 12:43:42;;;;;;;15.70;9.65;;;;;;;;;;5108813;28;20030;-76
2022/02/14 12:47:43;;;;;;;17.55;11.90;;;;;;;;;;5110428;27;20466;-76
2022/02/14 12:50:11;;;;;;;8.63;5.13;;;;;;;;;;5110420;28;20035;-75
2022/02/14 12:52:38;;;;;;;12.82;7.78;;;;;;;;;;5110410;28;20030;-77
2022/02/14 12:55:05;;;;;;;9.63;6.18;;;;;;;;;;5125258;28;20055;-74
2022/02/14 12:57:32;;;;;;;8.57;5.85;;;;;;;;;;5112816;28;20032;-78
2022/02/14 12:59:58;;;;;;;12.30;7.13;;;;;;;;;;5096301;28;20016;-79
2022/02/14 13:02:26;;;;;;;12.05;6.47;;;;;;;;;;5105063;28;20057;-77
2022/02/14 13:04:52;;;;;;;9.80;6.68;;;;;;;;;;5110305;28;20751;-79
2022/02/14 13:07:31;;;;;;;31.77;17.63;;;;;;;;;;5090289;27;20394;-81
2022/02/14 13:10:03;;;;;;;15.18;6.88;;;;;;;;;;5090514;28;20024;-79
2022/02/14 13:12:29;;;;;;;13.25;7.93;;;;;;;;;;5090528;28;20060;-76
2022/02/14 13:15:40;;;;;;;8.52;5.65;;;;;;;;;;5172687;27;20460;-78
2022/02/14 13:18:07;;;;;;;9.43;6.68;;;;;;;;;;5142057;27;20023;-77
2022/02/14 13:20:33;;;;;;;14.13;8.82;;;;;;;;;;5130517;28;20475;-75
2022/02/14 13:23:00;;;;;;;12.55;7.10;;;;;;;;;;5130994;27;20030;-82
2022/02/14 13:26:23;;;;;;;20.33;10.52;;;;;;;;;;5110135;27;20456;-76
2022/02/14 13:28:50;;;;;;;12.05;7.18;;;;;;;;;;5109911;28;20442;-78
2022/02/14 13:31:20;;;;;;;31.88;16.90;;;;;;;;;;5110528;28;20055;-76
2022/02/14 13:35:39;;;;;;;15.07;9.35;;;;;;;;;;5109051;27;20477;-86
2022/02/14 13:38:06;;;;;;;12.45;7.05;;;;;;;;;;5108712;28;20023;-81
2022/02/14 13:40:33;;;;;;;14.00;9.15;;;;;;;;;;5107885;28;20066;-76
2022/02/14 13:43:00;;;;;;;11.25;7.28;;;;;;;;;;5109167;28;20028;-77
2022/02/14 13:45:41;;;;;;;10.75;6.55;;;;;;;;;;5110639;28;20032;-79
2022/02/14 13:48:23;;;;;;;65.97;33.35;;;;;;;;;;5109856;28;20474;-77
2022/02/14 13:50:51;;;;;;;28.03;13.53;;;;;;;;;;5086226;28;20105;-81
2022/02/14 13:53:22;;;;;;;29.52;14.45;;;;;;;;;;5094278;28;20060;-77
2022/02/14 13:56:23;;;;;;;46.67;25.77;;;;;;;;;;5088662;28;20028;-78
2022/02/14 14:00:00;;;;;;;22.77;11.25;;;;;;;;;;5109088;27;20923;-77
2022/02/14 14:02:29;;;;;;;22.15;14.95;;;;;;;;;;5107021;28;20027;-77
2022/02/14 14:05:15;;;;;;;25.77;17.30;;;;;;;;;;5108377;28;20020;-77
2022/02/14 14:08:50;;;;;;;11.85;6.80;;;;;;;;;;5109407;27;20923;-76
2022/02/14 14:11:27;;;;;;;8.45;5.18;;;;;;;;;;5108984;28;20692;-76
2022/02/14 14:13:56;;;;;;;33.22;14.93;;;;;;;;;;5109749;28;20024;-76
2022/02/14 14:17:30;;;;;;;19.27;10.38;;;;;;;;;;5110239;27;20388;-76
2022/02/14 14:20:01;;;;;;;24.15;11.93;;;;;;;;;;5111279;28;20426;-76
2022/02/14 14:22:31;;;;;;;13.27;7.47;;;;;;;;;;5111408;28;20069;-76
2022/02/14 14:25:00;;;;;;;17.25;9.93;;;;;;;;;;5110724;28;20379;-77
2022/02/14 14:27:27;;;;;;;11.23;6.15;;;;;;;;;;5111029;28;20081;-76
2022/02/14 14:29:53;;;;;;;23.83;14.65;;;;;;;;;;5111342;28;20491;-77
2022/02/14 14:32:19;;;;;;;14.38;9.23;;;;;;;;;;5110777;28;20047;-78
2022/02/14 14:36:13;;;;;;;11.38;6.63;;;;;;;;;;5112042;27;20521;-78
2022/02/14 14:38:41;;;;;;;9.20;6.18;;;;;;;;;;5109707;28;20361;-78
2022/02/14 14:41:20;;;;;;;13.80;8.02;;;;;;;;;;5111312;27;20381;-78
2022/02/14 14:45:00;;;;;;;12.27;8.13;;;;;;;;;;5111384;27;20513;-78
2022/02/14 14:48:28;;;;;;;36.50;21.08;;;;;;;;;;5111646;27;20901;-77
2022/02/14 14:50:54;;;;;;;45.63;25.63;;;;;;;;;;5111229;28;20056;-77
2022/02/14 14:53:20;;;;;;;17.25;8.75;;;;;;;;;;5110938;28;20023;-75
2022/02/14 14:57:24;;;;;;;28.80;16.40;;;;;;;;;;5111572;27;20388;-76
2022/02/14 15:00:43;;;;;;;32.78;20.75;;;;;;;;;;5155816;27;20390;-78
2022/02/14 15:04:43;;;;;;;21.92;13.05;;;;;;;;;;5120209;27;20408;-79
2022/02/14 15:07:09;;;;;;;24.38;13.05;;;;;;;;;;5112672;28;20028;-79
2022/02/14 15:09:36;;;;;;;16.70;9.55;;;;;;;;;;5113131;28;20093;-76
2022/02/14 15:13:26;;;;;;;14.85;8.13;;;;;;;;;;5111334;27;20458;-77